Hamilton, Mississippi
Current Conditions -  °F | °C
As of 2:58 PM on Friday 19 Dec 2014 (Local Time) from KCBM Reporting Station
Broken Clouds Broken Clouds  
Wind Chill: 44°   Ceiling: 11000
Heat Index: 48°   Visibility: 10mi
Dew Point: 37°   Wind: 7mph
Humidity: 65%   Direction: 360°N
Pressure: 30.17"   Gusts: NA
Location:  33.75°N, 88.4°W
Report Text: KCBM 192058Z AUTO 36006KT 10SM BKN110 09/03 A3017 RMK AO2 SLP220 T00870025 57014 $
Loading
Personal Weather Stations






























Interactive Weather Map New forecast layout! Learn more

10-Day Weather Forecast

Advertisements
Track Severe Weather on mobile